sensor_id;sensor_type;location;lat;lon;timestamp;pressure;altitude;pressure_sealevel;temperature;humidity
59987;BME280;46181;51.498;5.392;2023-04-06T00:03:07;101716.9;;;9.02;43.90332
59987;BME280;46181;51.498;5.392;2023-04-06T00:07:37;101708.9;;;8.96;44.25684
59987;BME280;46181;51.498;5.392;2023-04-06T00:12:07;101708.5;;;8.9;44.43164
59987;BME280;46181;51.498;5.392;2023-04-06T00:16:37;101698.6;;;8.88;44.44043
59987;BME280;46181;51.498;5.392;2023-04-06T00:21:07;101703.7;;;8.88;44.51855
59987;BME280;46181;51.498;5.392;2023-04-06T00:25:37;101693.8;;;8.88;44.50781
59987;BME280;46181;51.498;5.392;2023-04-06T00:30:07;101687.9;;;8.88;44.39453
59987;BME280;46181;51.498;5.392;2023-04-06T00:34:37;101687.9;;;8.88;44.32715
59987;BME280;46181;51.498;5.392;2023-04-06T00:39:07;101686.6;;;8.87;44.22656
59987;BME280;46181;51.498;5.392;2023-04-06T00:43:37;101679.1;;;8.85;44.38184
59987;BME280;46181;51.498;5.392;2023-04-06T00:48:07;101674.1;;;8.81;44.44434
59987;BME280;46181;51.498;5.392;2023-04-06T00:52:37;101670.6;;;8.79;44.39746
59987;BME280;46181;51.498;5.392;2023-04-06T00:57:07;101662.2;;;8.75;44.25781
59987;BME280;46181;51.498;5.392;2023-04-06T01:01:38;101665.6;;;8.69;44.07129
59987;BME280;46181;51.498;5.392;2023-04-06T01:06:07;101658.2;;;8.66;43.93359
59987;BME280;46181;51.498;5.392;2023-04-06T01:10:37;101654.1;;;8.66;43.65137
59987;BME280;46181;51.498;5.392;2023-04-06T01:15:08;101649.8;;;8.65;43.60547
59987;BME280;46181;51.498;5.392;2023-04-06T01:19:37;101645.5;;;8.62;43.69434
59987;BME280;46181;51.498;5.392;2023-04-06T01:24:07;101645.7;;;8.65;43.92188
59987;BME280;46181;51.498;5.392;2023-04-06T01:28:37;101641.3;;;8.65;43.92188
59987;BME280;46181;51.498;5.392;2023-04-06T01:33:07;101635.5;;;8.69;43.65527
59987;BME280;46181;51.498;5.392;2023-04-06T01:37:37;101637.5;;;8.74;43.70605
59987;BME280;46181;51.498;5.392;2023-04-06T01:42:07;101635.1;;;8.78;43.90039
59987;BME280;46181;51.498;5.392;2023-04-06T01:46:37;101628;;;8.84;43.80469
59987;BME280;46181;51.498;5.392;2023-04-06T01:51:07;101622.1;;;8.9;43.75488
59987;BME280;46181;51.498;5.392;2023-04-06T01:55:37;101619.9;;;8.96;43.66016
59987;BME280;46181;51.498;5.392;2023-04-06T02:00:08;101610.7;;;9.02;43.68848
59987;BME280;46181;51.498;5.392;2023-04-06T02:04:37;101609.8;;;9.11;43.5625
59987;BME280;46181;51.498;5.392;2023-04-06T02:09:07;101603.1;;;9.17;43.50195
59987;BME280;46181;51.498;5.392;2023-04-06T02:13:37;101598.3;;;9.25;43.46289
59987;BME280;46181;51.498;5.392;2023-04-06T02:18:08;101598.8;;;9.29;43.51367
59987;BME280;46181;51.498;5.392;2023-04-06T02:22:37;101593.9;;;9.35;43.42871
59987;BME280;46181;51.498;5.392;2023-04-06T02:27:07;101593.1;;;9.4;43.40039
59987;BME280;46181;51.498;5.392;2023-04-06T02:31:37;101588;;;9.43;43.31348
59987;BME280;46181;51.498;5.392;2023-04-06T02:36:07;101577.7;;;9.47;43.31641
59987;BME280;46181;51.498;5.392;2023-04-06T02:40:37;101576.2;;;9.52;43.28906
59987;BME280;46181;51.498;5.392;2023-04-06T02:45:07;101570;;;9.55;43.23438
59987;BME280;46181;51.498;5.392;2023-04-06T02:49:37;101562.9;;;9.57;43.31543
59987;BME280;46181;51.498;5.392;2023-04-06T02:54:07;101561.3;;;9.6;43.25098
59987;BME280;46181;51.498;5.392;2023-04-06T02:58:37;101556.3;;;9.63;43.27539
59987;BME280;46181;51.498;5.392;2023-04-06T03:03:07;101551.8;;;9.65;43.24512
59987;BME280;46181;51.498;5.392;2023-04-06T03:07:37;101547.7;;;9.67;43.25879
59987;BME280;46181;51.498;5.392;2023-04-06T03:12:07;101543.4;;;9.67;43.23633
59987;BME280;46181;51.498;5.392;2023-04-06T03:16:37;101543.3;;;9.7;43.26172
59987;BME280;46181;51.498;5.392;2023-04-06T03:21:07;101539.9;;;9.71;43.23926
59987;BME280;46181;51.498;5.392;2023-04-06T03:25:37;101536.3;;;9.73;43.22949
59987;BME280;46181;51.498;5.392;2023-04-06T03:30:08;101529.3;;;9.75;43.1416
59987;BME280;46181;51.498;5.392;2023-04-06T03:34:37;101529.1;;;9.78;43.15527
59987;BME280;46181;51.498;5.392;2023-04-06T03:39:07;101528.3;;;9.76;43.17578
59987;BME280;46181;51.498;5.392;2023-04-06T03:43:37;101517.4;;;9.76;43.13086
59987;BME280;46181;51.498;5.392;2023-04-06T03:48:07;101522.2;;;9.75;43.10742
59987;BME280;46181;51.498;5.392;2023-04-06T03:52:37;101520.1;;;9.76;43.08496
59987;BME280;46181;51.498;5.392;2023-04-06T03:57:07;101525.6;;;9.77;43.13184
59987;BME280;46181;51.498;5.392;2023-04-06T04:01:37;101523.1;;;9.72;43.33008
59987;BME280;46181;51.498;5.392;2023-04-06T04:06:07;101520.6;;;9.63;43.40137
59987;BME280;46181;51.498;5.392;2023-04-06T04:10:37;101518.2;;;9.58;43.31543
59987;BME280;46181;51.498;5.392;2023-04-06T04:15:08;101523.4;;;9.54;43.50488
59987;BME280;46181;51.498;5.392;2023-04-06T04:19:37;101523.4;;;9.51;43.42188
59987;BME280;46181;51.498;5.392;2023-04-06T04:24:07;101519.6;;;9.52;43.20898
59987;BME280;46181;51.498;5.392;2023-04-06T04:28:37;101524.4;;;9.53;43.16406
59987;BME280;46181;51.498;5.392;2023-04-06T04:33:07;101519.3;;;9.56;43.04395
59987;BME280;46181;51.498;5.392;2023-04-06T04:37:37;101516.1;;;9.6;43.05859
59987;BME280;46181;51.498;5.392;2023-04-06T04:42:07;101516.4;;;9.65;43.21094
59987;BME280;46181;51.498;5.392;2023-04-06T04:46:37;101516.3;;;9.69;43.37305
59987;BME280;46181;51.498;5.392;2023-04-06T04:51:07;101507.8;;;9.73;43.22949
59987;BME280;46181;51.498;5.392;2023-04-06T04:55:37;101508.2;;;9.79;42.85156
59987;BME280;46181;51.498;5.392;2023-04-06T05:00:08;101499.6;;;9.83;42.81152
59987;BME280;46181;51.498;5.392;2023-04-06T05:04:37;101498.4;;;9.85;42.71094
59987;BME280;46181;51.498;5.392;2023-04-06T05:09:07;101497.7;;;9.88;42.70313
59987;BME280;46181;51.498;5.392;2023-04-06T05:13:38;101503.7;;;9.91;42.71777
59987;BME280;46181;51.498;5.392;2023-04-06T05:18:07;101493.8;;;9.95;42.7334
59987;BME280;46181;51.498;5.392;2023-04-06T05:22:37;101496.8;;;10;42.71484
59987;BME280;46181;51.498;5.392;2023-04-06T05:27:07;101495.3;;;10.06;42.46094
59987;BME280;46181;51.498;5.392;2023-04-06T05:31:37;101498.5;;;10.1;42.22656
59987;BME280;46181;51.498;5.392;2023-04-06T05:36:07;101503;;;10.11;42.04785
59987;BME280;46181;51.498;5.392;2023-04-06T05:40:37;101501.4;;;10.17;41.91797
59987;BME280;46181;51.498;5.392;2023-04-06T05:45:08;101498.1;;;10.2;41.98828
59987;BME280;46181;51.498;5.392;2023-04-06T05:49:37;101497.2;;;10.29;41.83887
59987;BME280;46181;51.498;5.392;2023-04-06T05:54:08;101494.2;;;10.34;41.64063
59987;BME280;46181;51.498;5.392;2023-04-06T05:58:37;101495;;;10.44;41.49121
59987;BME280;46181;51.498;5.392;2023-04-06T06:03:07;101497.7;;;10.54;41.30957
59987;BME280;46181;51.498;5.392;2023-04-06T06:07:37;101495.3;;;10.64;41.125
59987;BME280;46181;51.498;5.392;2023-04-06T06:12:07;101506.1;;;10.72;40.7041
59987;BME280;46181;51.498;5.392;2023-04-06T06:16:37;101509.4;;;10.83;40.64551
59987;BME280;46181;51.498;5.392;2023-04-06T06:21:07;101503.2;;;10.96;40.62402
59987;BME280;46181;51.498;5.392;2023-04-06T06:25:37;101501.1;;;11.1;40.48926
59987;BME280;46181;51.498;5.392;2023-04-06T06:30:08;101501.6;;;11.21;40.3418
59987;BME280;46181;51.498;5.392;2023-04-06T06:34:37;101503.5;;;11.3;40.09961
59987;BME280;46181;51.498;5.392;2023-04-06T06:39:07;101502.2;;;11.35;40.11621
59987;BME280;46181;51.498;5.392;2023-04-06T06:43:37;101504.4;;;11.41;40.21191
59987;BME280;46181;51.498;5.392;2023-04-06T06:48:07;101499;;;11.47;40.11621
59987;BME280;46181;51.498;5.392;2023-04-06T06:52:37;101498;;;11.51;40.05176
59987;BME280;46181;51.498;5.392;2023-04-06T06:57:07;101498.9;;;11.55;40.00977
59987;BME280;46181;51.498;5.392;2023-04-06T07:01:37;101499.1;;;11.66;39.75879
59987;BME280;46181;51.498;5.392;2023-04-06T07:06:08;101496;;;11.68;39.68164
59987;BME280;46181;51.498;5.392;2023-04-06T07:10:37;101498.7;;;11.79;39.7373
59987;BME280;46181;51.498;5.392;2023-04-06T07:15:08;101498.5;;;11.91;39.67871
59987;BME280;46181;51.498;5.392;2023-04-06T07:19:37;101493.4;;;12.02;39.56445
59987;BME280;46181;51.498;5.392;2023-04-06T07:24:07;101488.9;;;12.12;39.44922
59987;BME280;46181;51.498;5.392;2023-04-06T07:28:37;101490.5;;;12.24;39.3584
59987;BME280;46181;51.498;5.392;2023-04-06T07:33:07;101487.7;;;12.38;39.30176
59987;BME280;46181;51.498;5.392;2023-04-06T07:37:37;101484.7;;;12.48;39.10547
59987;BME280;46181;51.498;5.392;2023-04-06T07:42:07;101484.2;;;12.6;38.90137
59987;BME280;46181;51.498;5.392;2023-04-06T07:46:37;101487.8;;;12.72;38.80957
59987;BME280;46181;51.498;5.392;2023-04-06T07:51:13;101488.9;;;12.81;38.79395
59987;BME280;46181;51.498;5.392;2023-04-06T07:55:37;101483.1;;;12.99;38.90137
59987;BME280;46181;51.498;5.392;2023-04-06T08:00:08;101491.4;;;13.15;38.83594
59987;BME280;46181;51.498;5.392;2023-04-06T08:04:37;101494;;;13.23;38.5127
59987;BME280;46181;51.498;5.392;2023-04-06T08:09:07;101488.6;;;13.29;38.54004
59987;BME280;46181;51.498;5.392;2023-04-06T08:13:37;101490.9;;;13.45;38.50977
59987;BME280;46181;51.498;5.392;2023-04-06T08:18:07;101487.3;;;13.63;38.38867
59987;BME280;46181;51.498;5.392;2023-04-06T08:22:37;101488.7;;;13.87;38.36328
59987;BME280;46181;51.498;5.392;2023-04-06T08:27:07;101490.7;;;14;38.14648
59987;BME280;46181;51.498;5.392;2023-04-06T08:31:37;101488.6;;;14.15;37.83984
59987;BME280;46181;51.498;5.392;2023-04-06T08:36:12;101494.5;;;14.19;37.82129
59987;BME280;46181;51.498;5.392;2023-04-06T08:40:39;101491;;;14.18;37.98047
59987;BME280;46181;51.498;5.392;2023-04-06T08:45:08;101489.5;;;14.2;37.92383
59987;BME280;46181;51.498;5.392;2023-04-06T08:49:38;101497.9;;;14.18;37.95703
59987;BME280;46181;51.498;5.392;2023-04-06T08:54:08;101494;;;14.31;38.13867
59987;BME280;46181;51.498;5.392;2023-04-06T08:58:39;101490.8;;;14.43;38.13867
59987;BME280;46181;51.498;5.392;2023-04-06T09:03:07;101496.6;;;14.63;38.06348
59987;BME280;46181;51.498;5.392;2023-04-06T09:07:37;101501.9;;;14.86;37.96973
59987;BME280;46181;51.498;5.392;2023-04-06T09:12:07;101503.5;;;14.99;37.88965
59987;BME280;46181;51.498;5.392;2023-04-06T09:16:47;101503;;;15.05;38.70801
59987;BME280;46181;51.498;5.392;2023-04-06T09:21:10;101508.1;;;15.19;39.45215
59987;BME280;46181;51.498;5.392;2023-04-06T09:25:37;101508.2;;;15.06;40.42383
59987;BME280;46181;51.498;5.392;2023-04-06T09:30:12;101505.7;;;14.96;41.83203
59987;BME280;46181;51.498;5.392;2023-04-06T09:34:37;101502.2;;;14.92;42.6377
59987;BME280;46181;51.498;5.392;2023-04-06T09:39:08;101500.3;;;15.03;42.69629
59987;BME280;46181;51.498;5.392;2023-04-06T09:43:38;101499.1;;;15.17;42.70898
59987;BME280;46181;51.498;5.392;2023-04-06T09:48:08;101501.5;;;15.21;42.5752
59987;BME280;46181;51.498;5.392;2023-04-06T09:52:46;101504.1;;;15.2;42.86035
59987;BME280;46181;51.498;5.392;2023-04-06T09:57:11;101500.9;;;15.22;43.125
59987;BME280;46181;51.498;5.392;2023-04-06T10:01:38;101500.3;;;15.11;44.43945
59987;BME280;46181;51.498;5.392;2023-04-06T10:06:10;101502.8;;;15.02;44.9541
59987;BME280;46181;51.498;5.392;2023-04-06T10:10:37;101496.9;;;14.9;45.74219
59987;BME280;46181;51.498;5.392;2023-04-06T10:15:08;101499.2;;;14.86;46.96973
59987;BME280;46181;51.498;5.392;2023-04-06T10:19:44;101511.6;;;14.86;47.64258
59987;BME280;46181;51.498;5.392;2023-04-06T10:24:10;101503.1;;;14.77;47.91797
59987;BME280;46181;51.498;5.392;2023-04-06T10:28:41;101506;;;14.69;48.50195
59987;BME280;46181;51.498;5.392;2023-04-06T10:33:16;101506.8;;;14.75;49.23828
59987;BME280;46181;51.498;5.392;2023-04-06T10:42:15;101506.5;;;14.52;50.00879
59987;BME280;46181;51.498;5.392;2023-04-06T10:46:38;101497.3;;;14.48;50.44922
59987;BME280;46181;51.498;5.392;2023-04-06T10:51:10;101496.7;;;14.44;50.91016
59987;BME280;46181;51.498;5.392;2023-04-06T10:55:38;101492.7;;;14.37;51.3457
59987;BME280;46181;51.498;5.392;2023-04-06T11:00:08;101487.5;;;14.29;51.79199
59987;BME280;46181;51.498;5.392;2023-04-06T11:04:37;101482.2;;;14.32;52.11426
59987;BME280;46181;51.498;5.392;2023-04-06T11:09:07;101482.6;;;14.33;52.52344
59987;BME280;46181;51.498;5.392;2023-04-06T11:13:46;101484.8;;;14.2;53.00977
59987;BME280;46181;51.498;5.392;2023-04-06T11:18:12;101481.2;;;14.14;53.20703
59987;BME280;46181;51.498;5.392;2023-04-06T11:22:47;101476.8;;;14.14;53.73047
59987;BME280;46181;51.498;5.392;2023-04-06T11:27:07;101467.3;;;14.3;54.5791
59987;BME280;46181;51.498;5.392;2023-04-06T11:31:41;101464;;;14.51;55.27539
59987;BME280;46181;51.498;5.392;2023-04-06T11:36:10;101460.9;;;14.58;54.83008
59987;BME280;46181;51.498;5.392;2023-04-06T11:40:37;101460;;;14.69;55.18457
59987;BME280;46181;51.498;5.392;2023-04-06T11:45:08;101445.6;;;14.85;55.31836
59987;BME280;46181;51.498;5.392;2023-04-06T11:49:40;101440;;;15.03;55.76367
59987;BME280;46181;51.498;5.392;2023-04-06T11:54:07;101429.6;;;15.13;55.66113
59987;BME280;46181;51.498;5.392;2023-04-06T11:58:38;101433.6;;;15.14;55.69727
59987;BME280;46181;51.498;5.392;2023-04-06T12:03:07;101428.7;;;15.07;55.51758
59987;BME280;46181;51.498;5.392;2023-04-06T12:07:37;101430.3;;;14.97;55.33398
59987;BME280;46181;51.498;5.392;2023-04-06T12:12:07;101426.7;;;14.88;55.27734
59987;BME280;46181;51.498;5.392;2023-04-06T12:16:37;101423.8;;;14.76;55.41016
59987;BME280;46181;51.498;5.392;2023-04-06T12:21:07;101424.9;;;14.77;55.50293
59987;BME280;46181;51.498;5.392;2023-04-06T12:25:37;101415.9;;;14.83;55.71484
59987;BME280;46181;51.498;5.392;2023-04-06T12:30:08;101423.3;;;14.87;55.76367
59987;BME280;46181;51.498;5.392;2023-04-06T12:34:37;101420;;;14.7;55.74414
59987;BME280;46181;51.498;5.392;2023-04-06T12:39:08;101421.8;;;14.56;55.89648
59987;BME280;46181;51.498;5.392;2023-04-06T12:43:37;101419.1;;;14.5;56.15039
59987;BME280;46181;51.498;5.392;2023-04-06T12:48:07;101410.4;;;14.3;56.3291
59987;BME280;46181;51.498;5.392;2023-04-06T12:52:37;101406.5;;;14.17;56.81152
59987;BME280;46181;51.498;5.392;2023-04-06T12:57:07;101396.2;;;14.14;57.24023
59987;BME280;46181;51.498;5.392;2023-04-06T13:01:37;101399.7;;;14.06;57.16211
59987;BME280;46181;51.498;5.392;2023-04-06T13:06:08;101396.7;;;13.95;56.96484
59987;BME280;46181;51.498;5.392;2023-04-06T13:10:37;101389.9;;;13.9;57.07129
59987;BME280;46181;51.498;5.392;2023-04-06T13:15:08;101383.9;;;13.88;57.28516
59987;BME280;46181;51.498;5.392;2023-04-06T13:19:37;101380;;;13.8;57.43457
59987;BME280;46181;51.498;5.392;2023-04-06T13:24:07;101379.1;;;13.75;57.68848
59987;BME280;46181;51.498;5.392;2023-04-06T13:28:37;101368.6;;;13.72;58.05859
59987;BME280;46181;51.498;5.392;2023-04-06T13:33:07;101361;;;13.68;58.43848
59987;BME280;46181;51.498;5.392;2023-04-06T13:37:37;101363.5;;;13.65;58.65039
59987;BME280;46181;51.498;5.392;2023-04-06T13:42:07;101356.4;;;13.67;58.86914
59987;BME280;46181;51.498;5.392;2023-04-06T13:46:37;101348.6;;;13.71;58.83984
59987;BME280;46181;51.498;5.392;2023-04-06T13:51:16;101349.8;;;13.65;59.0918
59987;BME280;46181;51.498;5.392;2023-04-06T13:55:37;101347.6;;;13.65;59.11523
59987;BME280;46181;51.498;5.392;2023-04-06T14:00:08;101346.9;;;13.59;59.34473
59987;BME280;46181;51.498;5.392;2023-04-06T14:04:37;101347.1;;;13.57;59.54492
59987;BME280;46181;51.498;5.392;2023-04-06T14:09:07;101342.4;;;13.47;59.74707
59987;BME280;46181;51.498;5.392;2023-04-06T14:13:37;101340.2;;;13.42;60.04688
59987;BME280;46181;51.498;5.392;2023-04-06T14:18:07;101338.2;;;13.38;60.41504
59987;BME280;46181;51.498;5.392;2023-04-06T14:22:37;101341.7;;;13.32;60.71191
59987;BME280;46181;51.498;5.392;2023-04-06T14:27:08;101333.4;;;13.24;60.88281
59987;BME280;46181;51.498;5.392;2023-04-06T14:31:37;101329.9;;;13.21;61.05859
59987;BME280;46181;51.498;5.392;2023-04-06T14:36:08;101326.1;;;13.16;61.32324
59987;BME280;46181;51.498;5.392;2023-04-06T14:40:38;101326.8;;;13.13;61.58008
59987;BME280;46181;51.498;5.392;2023-04-06T14:45:08;101317.2;;;13.11;61.73535
59987;BME280;46181;51.498;5.392;2023-04-06T14:49:37;101318.7;;;13.13;61.88574
59987;BME280;46181;51.498;5.392;2023-04-06T14:54:08;101315.3;;;13.13;62.05566
59987;BME280;46181;51.498;5.392;2023-04-06T14:58:37;101311.1;;;13.09;62.11719
59987;BME280;46181;51.498;5.392;2023-04-06T15:03:07;101308.4;;;12.99;62.31641
59987;BME280;46181;51.498;5.392;2023-04-06T15:07:37;101304.5;;;12.96;62.44824
59987;BME280;46181;51.498;5.392;2023-04-06T15:12:07;101296;;;12.91;62.81543
59987;BME280;46181;51.498;5.392;2023-04-06T15:16:37;101290.2;;;12.96;62.95703
59987;BME280;46181;51.498;5.392;2023-04-06T15:21:07;101287.6;;;12.98;63.00488
59987;BME280;46181;51.498;5.392;2023-04-06T15:25:38;101285.2;;;13;63.12207
59987;BME280;46181;51.498;5.392;2023-04-06T15:30:08;101289.4;;;13.01;63.16699
59987;BME280;46181;51.498;5.392;2023-04-06T15:34:39;101283.9;;;13.02;63.32813
59987;BME280;46181;51.498;5.392;2023-04-06T15:39:08;101280.1;;;13.02;63.37305
59987;BME280;46181;51.498;5.392;2023-04-06T15:43:37;101278;;;13.06;63.52637
59987;BME280;46181;51.498;5.392;2023-04-06T15:48:07;101278.5;;;13.09;63.42871
59987;BME280;46181;51.498;5.392;2023-04-06T15:52:38;101274.3;;;13.04;63.59082
59987;BME280;46181;51.498;5.392;2023-04-06T15:57:07;101271.8;;;13.02;63.71094
59987;BME280;46181;51.498;5.392;2023-04-06T16:01:37;101271.4;;;13.02;63.81348
59987;BME280;46181;51.498;5.392;2023-04-06T16:06:08;101269.7;;;13.04;63.87305
59987;BME280;46181;51.498;5.392;2023-04-06T16:10:37;101265.2;;;13.05;63.88574
59987;BME280;46181;51.498;5.392;2023-04-06T16:15:08;101263.1;;;13.09;63.88086
59987;BME280;46181;51.498;5.392;2023-04-06T16:19:37;101258.7;;;13.14;63.9209
59987;BME280;46181;51.498;5.392;2023-04-06T16:24:08;101257.1;;;13.14;63.94434
59987;BME280;46181;51.498;5.392;2023-04-06T16:28:37;101250.2;;;13.13;64.01172
59987;BME280;46181;51.498;5.392;2023-04-06T16:33:07;101253.9;;;13.14;64.14746
59987;BME280;46181;51.498;5.392;2023-04-06T16:37:38;101246.2;;;13.14;64.23828
59987;BME280;46181;51.498;5.392;2023-04-06T16:42:07;101248;;;13.15;64.25
59987;BME280;46181;51.498;5.392;2023-04-06T16:46:41;101245;;;13.12;64.30273
59987;BME280;46181;51.498;5.392;2023-04-06T16:51:11;101244.8;;;13.11;64.26758
59987;BME280;46181;51.498;5.392;2023-04-06T16:55:37;101247.5;;;13.13;64.22559
59987;BME280;46181;51.498;5.392;2023-04-06T17:00:09;101235.6;;;13.13;64.38477
59987;BME280;46181;51.498;5.392;2023-04-06T17:04:37;101235.1;;;13.1;64.49121
59987;BME280;46181;51.498;5.392;2023-04-06T17:09:07;101233.8;;;13.1;64.55859
59987;BME280;46181;51.498;5.392;2023-04-06T17:13:37;101228.1;;;13.1;64.58301
59987;BME280;46181;51.498;5.392;2023-04-06T17:18:07;101225.5;;;13.11;64.68555
59987;BME280;46181;51.498;5.392;2023-04-06T17:22:37;101226.6;;;13.13;64.6543
59987;BME280;46181;51.498;5.392;2023-04-06T17:27:07;101225.5;;;13.14;64.63379
59987;BME280;46181;51.498;5.392;2023-04-06T17:31:37;101221.4;;;13.15;64.5791
59987;BME280;46181;51.498;5.392;2023-04-06T17:36:08;101229.1;;;13.19;64.52832
59987;BME280;46181;51.498;5.392;2023-04-06T17:40:37;101227.3;;;13.21;64.47461
59987;BME280;46181;51.498;5.392;2023-04-06T17:45:09;101230.7;;;13.18;64.57227
59987;BME280;46181;51.498;5.392;2023-04-06T17:49:37;101233.4;;;13.17;64.6377
59987;BME280;46181;51.498;5.392;2023-04-06T17:54:07;101239.6;;;13.2;64.6416
59987;BME280;46181;51.498;5.392;2023-04-06T17:58:37;101236.2;;;13.23;64.61133
59987;BME280;46181;51.498;5.392;2023-04-06T18:03:07;101236.8;;;13.24;64.55859
59987;BME280;46181;51.498;5.392;2023-04-06T18:07:37;101240.4;;;13.24;64.60254
59987;BME280;46181;51.498;5.392;2023-04-06T18:12:08;101239.8;;;13.28;64.51855
59987;BME280;46181;51.498;5.392;2023-04-06T18:16:37;101240.1;;;13.31;64.41016
59987;BME280;46181;51.498;5.392;2023-04-06T18:21:10;101238.1;;;13.29;64.41797
59987;BME280;46181;51.498;5.392;2023-04-06T18:25:40;101240.9;;;13.34;64.36816
59987;BME280;46181;51.498;5.392;2023-04-06T18:30:08;101240.6;;;13.36;64.37207
59987;BME280;46181;51.498;5.392;2023-04-06T18:34:37;101238.3;;;13.37;64.39648
59987;BME280;46181;51.498;5.392;2023-04-06T18:39:07;101241.6;;;13.37;64.46387
59987;BME280;46181;51.498;5.392;2023-04-06T18:43:37;101240.5;;;13.38;64.57715
59987;BME280;46181;51.498;5.392;2023-04-06T18:48:08;101242.7;;;13.4;64.62695
59987;BME280;46181;51.498;5.392;2023-04-06T18:52:37;101243.6;;;13.42;64.61816
59987;BME280;46181;51.498;5.392;2023-04-06T18:57:07;101247.6;;;13.49;64.59375
59987;BME280;46181;51.498;5.392;2023-04-06T19:01:38;101245.7;;;13.5;64.52832
59987;BME280;46181;51.498;5.392;2023-04-06T19:06:08;101245.2;;;13.47;64.49023
59987;BME280;46181;51.498;5.392;2023-04-06T19:10:38;101244.9;;;13.46;64.55566
59987;BME280;46181;51.498;5.392;2023-04-06T19:15:08;101247.8;;;13.47;64.56934
59987;BME280;46181;51.498;5.392;2023-04-06T19:19:37;101248.4;;;13.5;64.6748
59987;BME280;46181;51.498;5.392;2023-04-06T19:24:08;101247.9;;;13.53;64.71289
59987;BME280;46181;51.498;5.392;2023-04-06T19:28:38;101254.6;;;13.58;64.6416
59987;BME280;46181;51.498;5.392;2023-04-06T19:33:07;101253.5;;;13.62;64.5
59987;BME280;46181;51.498;5.392;2023-04-06T19:37:38;101251.8;;;13.62;64.40918
59987;BME280;46181;51.498;5.392;2023-04-06T19:42:08;101262.1;;;13.66;64.3584
59987;BME280;46181;51.498;5.392;2023-04-06T19:46:38;101260.7;;;13.66;64.23535
59987;BME280;46181;51.498;5.392;2023-04-06T19:51:08;101259.8;;;13.68;64.09082
59987;BME280;46181;51.498;5.392;2023-04-06T19:55:38;101265.2;;;13.73;64.06445
59987;BME280;46181;51.498;5.392;2023-04-06T20:00:09;101266.9;;;13.76;63.93262
59987;BME280;46181;51.498;5.392;2023-04-06T20:04:38;101278.2;;;13.73;63.92871
59987;BME280;46181;51.498;5.392;2023-04-06T20:09:07;101275.9;;;13.77;63.91016
59987;BME280;46181;51.498;5.392;2023-04-06T20:13:38;101273.6;;;13.79;63.86816
59987;BME280;46181;51.498;5.392;2023-04-06T20:18:08;101277.7;;;13.84;63.75098
59987;BME280;46181;51.498;5.392;2023-04-06T20:22:38;101282.5;;;13.82;63.66992
59987;BME280;46181;51.498;5.392;2023-04-06T20:27:08;101284.3;;;13.83;63.6709
59987;BME280;46181;51.498;5.392;2023-04-06T20:31:38;101286.6;;;13.84;63.58203
59987;BME280;46181;51.498;5.392;2023-04-06T20:36:09;101282.3;;;13.81;63.64453
59987;BME280;46181;51.498;5.392;2023-04-06T20:40:38;101279;;;13.83;63.7168
59987;BME280;46181;51.498;5.392;2023-04-06T20:45:08;101279;;;13.83;63.7959
59987;BME280;46181;51.498;5.392;2023-04-06T20:49:38;101284.1;;;13.82;63.72559
59987;BME280;46181;51.498;5.392;2023-04-06T20:54:08;101290.4;;;13.82;63.7832
59987;BME280;46181;51.498;5.392;2023-04-06T20:58:38;101286.5;;;13.81;63.78027
59987;BME280;46181;51.498;5.392;2023-04-06T21:03:08;101291.5;;;13.78;63.81152
59987;BME280;46181;51.498;5.392;2023-04-06T21:07:38;101292;;;13.77;63.88867
59987;BME280;46181;51.498;5.392;2023-04-06T21:12:08;101298;;;13.76;63.8418
59987;BME280;46181;51.498;5.392;2023-04-06T21:16:38;101291.6;;;13.76;63.78516
59987;BME280;46181;51.498;5.392;2023-04-06T21:21:08;101290.4;;;13.74;63.79395
59987;BME280;46181;51.498;5.392;2023-04-06T21:25:38;101291.2;;;13.74;63.72656
59987;BME280;46181;51.498;5.392;2023-04-06T21:30:09;101289.9;;;13.73;63.72461
59987;BME280;46181;51.498;5.392;2023-04-06T21:34:39;101293.8;;;13.72;63.75781
59987;BME280;46181;51.498;5.392;2023-04-06T21:39:08;101294.2;;;13.69;63.71973
59987;BME280;46181;51.498;5.392;2023-04-06T21:43:38;101296.8;;;13.67;63.77246
59987;BME280;46181;51.498;5.392;2023-04-06T21:48:08;101295.5;;;13.67;63.81738
59987;BME280;46181;51.498;5.392;2023-04-06T21:52:38;101295.4;;;13.65;63.91699
59987;BME280;46181;51.498;5.392;2023-04-06T21:57:08;101301.8;;;13.63;63.91406
59987;BME280;46181;51.498;5.392;2023-04-06T22:01:38;101306.1;;;13.63;63.87988
59987;BME280;46181;51.498;5.392;2023-04-06T22:06:10;101302.1;;;13.56;63.98242
59987;BME280;46181;51.498;5.392;2023-04-06T22:10:38;101302.8;;;13.56;64.0166
59987;BME280;46181;51.498;5.392;2023-04-06T22:15:09;101302.3;;;13.57;64.01855
59987;BME280;46181;51.498;5.392;2023-04-06T22:19:38;101304.3;;;13.55;63.89063
59987;BME280;46181;51.498;5.392;2023-04-06T22:24:08;101309.8;;;13.55;63.88965
59987;BME280;46181;51.498;5.392;2023-04-06T22:28:38;101305.1;;;13.52;63.94336
59987;BME280;46181;51.498;5.392;2023-04-06T22:33:08;101312.7;;;13.51;63.98633
59987;BME280;46181;51.498;5.392;2023-04-06T22:37:38;101318.6;;;13.47;63.98145
59987;BME280;46181;51.498;5.392;2023-04-06T22:42:08;101321.4;;;13.45;64.0459
59987;BME280;46181;51.498;5.392;2023-04-06T22:46:37;101324.1;;;13.43;64.00879
59987;BME280;46181;51.498;5.392;2023-04-06T22:51:08;101328.7;;;13.38;64.0459
59987;BME280;46181;51.498;5.392;2023-04-06T22:55:38;101326.7;;;13.29;64.10156
59987;BME280;46181;51.498;5.392;2023-04-06T23:00:09;101329.9;;;13.25;64.14063
59987;BME280;46181;51.498;5.392;2023-04-06T23:04:38;101335.6;;;13.17;64.19824
59987;BME280;46181;51.498;5.392;2023-04-06T23:09:08;101338.9;;;13.13;64.2832